Latest Weather Observations for Wattamolla

IDN60801

Issued at 1:05 pm EDT Sunday 23 November 2014 (issued every 30 minutes, with the page automatically refreshed every 10 minutes)

About weather observations | Map of weather stations | Latest weather observations for NSW | Other Formats
Station Details ID: 066208 Name: WATTAMOLLA AWS Lat: -34.14 Lon: 151.12 Height: 44.0 m
Data from the previous 72 hours. | See also: Recent months for locations in New South Wales
Date/Time
EDT
Temp
°C
App
Temp
°C
Dew
Point
Rel
Hum
%
Delta-T
°C
Wind Press
QNH
hPa
Press
MSL
hPa
Rain
since 9 am
mm
Dir
 
Spd
km/h
Gust
km/h
Spd
kts
Gust
kts
23/12:30pm - - - - - ENE 13 20 7 11 - - -
23/12:00pm - - - - - ENE 13 17 7 9 - - -
23/11:30am - - - - - ENE 13 17 7 9 - - -
23/11:00am - - - - - ENE 13 24 7 13 - - -
23/10:30am - - - - - ENE 9 17 5 9 - - -
23/10:00am - - - - - ENE 15 19 8 10 - - -
23/09:30am - - - - - ENE 13 19 7 10 - - -
23/09:00am - - - - - N 9 11 5 6 - - -
23/08:30am - - - - - N 13 17 7 9 - - -
23/08:00am - - - - - N 15 22 8 12 - - -
23/07:30am - - - - - N 15 20 8 11 - - -
23/07:00am - - - - - N 19 26 10 14 - - -
23/06:30am - - - - - N 17 22 9 12 - - -
23/06:00am - - - - - N 15 20 8 11 - - -
23/05:30am - - - - - N 15 20 8 11 - - -
23/05:00am - - - - - N 13 19 7 10 - - -
23/04:30am - - - - - N 13 19 7 10 - - -
23/04:00am - - - - - N 11 13 6 7 - - -
23/03:30am - - - - - N 13 15 7 8 - - -
23/03:00am - - - - - N 9 15 5 8 - - -
23/02:30am - - - - - N 9 13 5 7 - - -
23/02:00am - - - - - N 7 11 4 6 - - -
23/01:30am - - - - - N 9 13 5 7 - - -
23/01:00am - - - - - N 7 11 4 6 - - -
23/12:30am - - - - - NNW 9 11 5 6 - - -
23/12:00am - - - - - N 7 15 4 8 - - -
 
Date/Time
EDT
Temp
°C
App
Temp
°C
Dew
Point
Rel
Hum
%
Delta-T
°C
Wind Press
QNH
hPa
Press
MSL
hPa
Rain
since 9 am
mm
Dir
 
Spd
km/h
Gust
km/h
Spd
kts
Gust
kts
22/11:30pm - - - - - NNW 7 9 4 5 - - -
22/11:00pm - - - - - NNW 6 9 3 5 - - -
22/10:30pm - - - - - N 9 11 5 6 - - -
22/10:00pm - - - - - N 7 11 4 6 - - -
22/09:30pm - - - - - N 7 11 4 6 - - -
22/09:00pm - - - - - N 4 7 2 4 - - -
22/08:30pm - - - - - N 11 19 6 10 - - -
22/08:00pm - - - - - NNE 13 20 7 11 - - -
22/07:30pm - - - - - NNE 15 22 8 12 - - -
22/07:00pm - - - - - NNE 9 15 5 8 - - -
22/06:30pm - - - - - NE 15 20 8 11 - - -
22/06:00pm - - - - - NE 17 24 9 13 - - -
22/05:30pm - - - - - NE 17 24 9 13 - - -
22/05:00pm - - - - - ENE 13 17 7 9 - - -
22/04:30pm - - - - - ENE 13 20 7 11 - - -
22/04:00pm - - - - - E 13 17 7 9 - - -
22/03:30pm - - - - - E 15 19 8 10 - - -
22/03:00pm - - - - - E 13 19 7 10 - - -
22/02:30pm - - - - - ESE 11 19 6 10 - - -
22/02:00pm - - - - - E 13 17 7 9 - - -
22/01:30pm - - - - - ESE 13 19 7 10 - - -
22/01:00pm - - - - - ESE 13 19 7 10 - - -
22/12:30pm - - - - - SE 15 24 8 13 - - -
22/12:00pm - - - - - SE 13 20 7 11 - - -
22/11:30am - - - - - SE 11 15 6 8 - - -
22/11:00am - - - - - SE 15 19 8 10 - - -
22/10:30am - - - - - E 11 15 6 8 - - -
22/10:00am - - - - - SSE 11 15 6 8 - - -
22/09:30am - - - - - S 17 19 9 10 - - -
22/09:00am - - - - - S 17 20 9 11 - - -
22/08:30am - - - - - S 17 26 9 14 - - -
22/08:00am - - - - - S 17 24 9 13 - - -
22/07:30am - - - - - S 24 30 13 16 - - -
22/07:00am - - - - - S 28 33 15 18 - - -
22/06:30am - - - - - S 28 37 15 20 - - -
22/06:00am - - - - - SSE 26 33 14 18 - - -
22/05:30am - - - - - S 32 39 17 21 - - -
22/05:00am - - - - - S 28 35 15 19 - - -
22/04:30am - - - - - S 30 35 16 19 - - -
22/04:00am - - - - - S 28 33 15 18 - - -
22/03:30am - - - - - S 30 35 16 19 - - -
22/03:00am - - - - - S 30 35 16 19 - - -
22/02:30am - - - - - S 35 41 19 22 - - -
22/02:00am - - - - - S 39 48 21 26 - - -
22/01:30am - - - - - S 44 54 24 29 - - -
22/01:00am - - - - - S 44 52 24 28 - - -
22/12:30am - - - - - S 50 59 27 32 - - -
22/12:00am - - - - - S 48 57 26 31 - - -
 
Date/Time
EDT
Temp
°C
App
Temp
°C
Dew
Point
Rel
Hum
%
Delta-T
°C
Wind Press
QNH
hPa
Press
MSL
hPa
Rain
since 9 am
mm
Dir
 
Spd
km/h
Gust
km/h
Spd
kts
Gust
kts
21/11:30pm - - - - - S 50 57 27 31 - - -
21/11:00pm - - - - - S 52 61 28 33 - - -
21/10:30pm - - - - - S 52 61 28 33 - - -
21/10:00pm - - - - - S 54 61 29 33 - - -
21/09:30pm - - - - - S 54 63 29 34 - - -
21/09:00pm - - - - - S 54 67 29 36 - - -
21/08:30pm - - - - - S 57 70 31 38 - - -
21/08:00pm - - - - - S 59 69 32 37 - - -
21/07:30pm - - - - - S 56 63 30 34 - - -
21/07:00pm - - - - - S 52 59 28 32 - - -
21/06:30pm - - - - - S 50 57 27 31 - - -
21/06:00pm - - - - - S 50 59 27 32 - - -
21/05:30pm - - - - - S 43 52 23 28 - - -
21/05:18pm - - - - - S 46 50 25 27 - - -
21/05:00pm - - - - - S 20 26 11 14 - - -
21/04:30pm - - - - - S 11 17 6 9 - - -
21/04:00pm - - - - - S 13 19 7 10 - - -
21/03:30pm - - - - - SSW 9 13 5 7 - - -
21/03:00pm - - - - - S 17 24 9 13 - - -
21/02:30pm - - - - - S 17 30 9 16 - - -
21/02:00pm - - - - - S 20 26 11 14 - - -
21/01:30pm - - - - - S 19 26 10 14 - - -
21/01:00pm - - - - - SSE 15 19 8 10 - - -
21/12:30pm - - - - - ESE 11 17 6 9 - - -
21/12:00pm - - - - - SSE 11 15 6 8 - - -
21/11:30am - - - - - E 11 19 6 10 - - -
21/11:00am - - - - - E 9 11 5 6 - - -
21/10:00am - - - - - SE 6 7 3 4 - - -
21/09:30am - - - - - SE 7 7 4 4 - - -
21/09:00am - - - - - SSE 7 11 4 6 - - -
21/08:30am - - - - - SSW 15 19 8 10 - - -
21/08:00am - - - - - S 19 26 10 14 - - -
21/07:30am - - - - - S 26 41 14 22 - - -
21/07:00am - - - - - NW 17 20 9 11 - - -
21/06:30am - - - - - NNW 13 22 7 12 - - -
21/06:00am - - - - - W 19 24 10 13 - - -
21/05:30am - - - - - W 24 35 13 19 - - -
21/05:08am - - - - - WNW 28 52 15 28 - - -
21/05:00am - - - - - NW 26 37 14 20 - - -
21/04:30am - - - - - W 13 19 7 10 - - -
21/04:00am - - - - - SSW 11 15 6 8 - - -
21/03:30am - - - - - NW 26 28 14 15 - - -
21/03:00am - - - - - WNW 22 35 12 19 - - -
21/02:30am - - - - - NW 24 32 13 17 - - -
21/02:00am - - - - - NNW 15 20 8 11 - - -
21/01:30am - - - - - NNW 11 15 6 8 - - -
21/01:00am - - - - - N 15 19 8 10 - - -
21/12:30am - - - - - - - - - - - - -
 
Date/Time
EDT
Temp
°C
App
Temp
°C
Dew
Point
Rel
Hum
%
Delta-T
°C
Wind Press
QNH
hPa
Press
MSL
hPa
Rain
since 9 am
mm
Dir
 
Spd
km/h
Gust
km/h
Spd
kts
Gust
kts
20/11:00pm - - - - - N 11 13 6 7 - - -
20/10:30pm - - - - - N 11 13 6 7 - - -
20/10:00pm - - - - - N 15 17 8 9 - - -
20/09:30pm - - - - - N 19 26 10 14 - - -
20/09:00pm - - - - - N 20 28 11 15 - - -
20/08:30pm - - - - - N 24 33 13 18 - - -
20/08:00pm - - - - - N 30 35 16 19 - - -
20/07:30pm - - - - - N 24 33 13 18 - - -
20/07:00pm - - - - - NNE 24 33 13 18 - - -
20/06:30pm - - - - - NNE 32 41 17 22 - - -
20/06:00pm - - - - - NNE 35 48 19 26 - - -
20/05:39pm - - - - - NNE 32 50 17 27 - - -
20/05:30pm - - - - - N 32 41 17 22 - - -
20/05:04pm - - - - - NNE 30 48 16 26 - - -
20/05:00pm - - - - - NNE 28 41 15 22 - - -
20/04:30pm - - - - - NNE 28 37 15 20 - - -
20/04:00pm - - - - - NE 26 41 14 22 - - -
20/03:30pm - - - - - NE 20 30 11 16 - - -
20/03:00pm - - - - - NE 24 33 13 18 - - -

Other Formats:

Comma delimited format used in spreadsheet applications
http://www.bom.gov.au/fwo/IDN60801/IDN60801.95752.axf

JavaScript Object Notation format (JSON) in row-major order
http://www.bom.gov.au/fwo/IDN60801/IDN60801.95752.json